Time;durP1;ratioP1;P1;durP2;ratioP2;P2;SDS_P1;SDS_P2;PMS_P1;PMS_P2;Temp;Humidity;BMP_temperature;BMP_pressure;BME280_temperature;BME280_humidity;BME280_pressure;Samples;Min_cycle;Max_cycle;Signal;HPM_P1;HPM_P2
2022/08/26 00:01:35;;;;;;;7.40;4.90;;;;;;;14.96;69.81;97113.31;110072;1248;69298;-65
2022/08/26 00:04:05;;;;;;;7.30;4.40;;;;;;;14.92;69.84;97109.20;110145;1248;69600;-65
2022/08/26 00:06:35;;;;;;;7.30;4.70;;;;;;;14.89;69.78;97111.09;110059;1247;59787;-65
2022/08/26 00:09:04;;;;;;;;;;;;;;;14.85;70.32;97107.73;110140;1247;59663;-64
2022/08/26 00:11:36;;;;;;;6.40;4.90;;;;;;;14.83;70.47;97110.20;110072;1248;71581;-64
2022/08/26 00:14:05;;;;;;;5.70;4.50;;;;;;;14.81;70.32;97107.80;110075;1247;68764;-65
2022/08/26 00:16:35;;;;;;;6.80;5.10;;;;;;;14.81;70.38;97107.80;110021;1248;69393;-65
2022/08/26 00:19:09;;;;;;;7.30;4.40;;;;;;;14.79;70.47;97110.77;110006;1248;59756;-65
2022/08/26 00:21:38;;;;;;;;;;;;;;;14.76;70.76;97110.26;110059;1249;59704;-65
2022/08/26 00:24:08;;;;;;;;;;;;;;;14.72;71.34;97106.14;110039;1250;71513;-66
2022/08/26 00:26:39;;;;;;;6.30;4.50;;;;;;;14.69;71.01;97103.11;110131;1249;69711;-64
2022/08/26 00:29:11;;;;;;;7.50;5.10;;;;;;;14.65;70.95;97104.33;110016;1249;69577;-64
2022/08/26 00:31:42;;;;;;;7.70;4.60;;;;;;;14.62;71.07;97102.89;110038;1249;59664;-65
2022/08/26 00:34:14;;;;;;;6.70;4.90;;;;;;;14.59;70.48;97100.58;110072;1250;59693;-65
2022/08/26 00:36:47;;;;;;;8.50;4.80;;;;;;;14.57;70.83;97100.05;110019;1248;71556;-65
2022/08/26 00:39:20;;;;;;;6.20;5.30;;;;;;;14.53;70.69;97100.54;109908;1250;69405;-65
2022/08/26 00:41:51;;;;;;;8.00;5.10;;;;;;;14.50;70.61;97099.94;110069;1248;68672;-64
2022/08/26 00:44:22;;;;;;;6.00;4.40;;;;;;;14.46;71.18;97105.05;110027;1249;59766;-66
2022/08/26 00:46:58;;;;;;;5.20;4.30;;;;;;;14.43;70.82;97106.61;110077;1247;59624;-66
2022/08/26 00:49:38;;;;;;;8.20;5.20;;;;;;;14.37;72.86;97106.06;110070;1247;71647;-65
2022/08/26 00:52:13;;;;;;;7.00;4.80;;;;;;;14.33;74.81;97108.95;110043;1247;68638;-66
2022/08/26 00:54:55;;;;;;;6.50;4.60;;;;;;;14.29;72.24;97108.38;109805;1247;69399;-65
2022/08/26 00:57:25;;;;;;;8.60;4.90;;;;;;;14.27;74.42;97111.00;110037;1247;59767;-64
2022/08/26 00:59:59;;;;;;;5.70;4.70;;;;;;;14.24;73.98;97109.20;110068;1247;59638;-64
2022/08/26 01:02:28;;;;;;;7.40;4.60;;;;;;;14.21;73.67;97111.73;110056;1247;70891;-64
2022/08/26 01:05:01;;;;;;;5.80;4.70;;;;;;;14.19;72.12;97110.89;110140;1247;69412;-64
2022/08/26 01:07:32;;;;;;;8.00;5.20;;;;;;;14.16;75.11;97114.98;110130;1247;70055;-65
2022/08/26 01:10:08;;;;;;;7.50;5.00;;;;;;;14.10;76.14;97116.08;110102;1246;59779;-65
2022/08/26 01:12:54;;;;;;;5.60;5.00;;;;;;;14.01;75.79;97116.06;109714;1250;59742;-65
2022/08/26 01:15:39;;;;;;;10.60;6.60;;;;;;;13.89;77.32;97116.83;109685;1250;71418;-66
2022/08/26 01:18:12;;;;;;;8.10;6.70;;;;;;;13.74;76.07;97114.32;110129;1247;67769;-66
2022/08/26 01:20:50;;;;;;;9.40;6.20;;;;;;;13.60;78.97;97114.85;110123;1247;68597;-66
2022/08/26 01:23:39;;;;;;;7.00;5.80;;;;;;;13.52;81.24;97115.92;110139;1247;59753;-64
2022/08/26 01:26:28;;;;;;;6.20;5.40;;;;;;;13.49;82.03;97113.36;110125;1247;59709;-64
2022/08/26 01:29:01;;;;;;;6.10;4.90;;;;;;;13.48;80.78;97112.98;110085;1247;70776;-64
2022/08/26 01:31:41;;;;;;;8.90;5.40;;;;;;;13.44;79.63;97110.30;110037;1249;68684;-64
2022/08/26 01:34:19;;;;;;;8.20;6.40;;;;;;;13.40;80.77;97108.59;110027;1247;69470;-64
2022/08/26 01:36:53;;;;;;;9.40;6.00;;;;;;;13.31;79.55;97106.27;110056;1247;59732;-64
2022/08/26 01:39:24;;;;;;;9.00;6.30;;;;;;;13.21;80.73;97109.52;110100;1247;59746;-64
2022/08/26 01:41:57;;;;;;;8.30;6.40;;;;;;;13.15;82.48;97110.78;110094;1247;70720;-64
2022/08/26 01:44:37;;;;;;;6.80;5.40;;;;;;;13.12;83.83;97110.83;110056;1247;68664;-63
2022/08/26 01:47:09;;;;;;;6.60;5.70;;;;;;;13.12;83.74;97112.09;110083;1248;69483;-64
2022/08/26 01:49:39;;;;;;;8.80;6.40;;;;;;;13.11;83.56;97112.64;110027;1247;59739;-64
2022/08/26 01:52:13;;;;;;;8.60;6.00;;;;;;;13.12;84.43;97110.16;110082;1248;59689;-64
2022/08/26 01:54:43;;;;;;;6.80;5.30;;;;;;;13.11;84.30;97111.09;110070;1247;71519;-65
2022/08/26 01:57:20;;;;;;;8.50;5.80;;;;;;;13.11;82.59;97112.02;110055;1247;68589;-63
2022/08/26 01:59:55;;;;;;;7.00;6.10;;;;;;;13.09;82.06;97109.92;110064;1247;70048;-63
2022/08/26 02:02:26;;;;;;;7.30;6.50;;;;;;;13.03;84.53;97104.11;110022;1247;59711;-64
2022/08/26 02:05:03;;;;;;;6.20;5.00;;;;;;;13.00;85.32;97106.69;110065;1247;59680;-65
2022/08/26 02:07:33;;;;;;;5.90;4.90;;;;;;;12.98;83.78;97101.96;110095;1247;71504;-64
2022/08/26 02:10:04;;;;;;;8.40;5.80;;;;;;;12.96;82.43;97101.98;110169;1247;68513;-63
2022/08/26 02:12:34;;;;;;;7.00;4.90;;;;;;;12.94;80.35;97100.22;110051;1247;68655;-66
2022/08/26 02:15:10;;;;;;;6.80;5.50;;;;;;;12.93;81.02;97105.52;110069;1247;59688;-63
2022/08/26 02:17:46;;;;;;;6.40;5.00;;;;;;;12.91;80.94;97100.42;110049;1247;59707;-64
2022/08/26 02:20:18;;;;;;;9.60;6.00;;;;;;;12.90;84.27;97102.82;110085;1247;71029;-64
2022/08/26 02:22:48;;;;;;;8.30;6.00;;;;;;;12.88;85.43;97101.64;110131;1247;68640;-63
2022/08/26 02:25:40;;;;;;;7.30;5.70;;;;;;;12.85;83.47;97104.31;110007;1248;69401;-63
2022/08/26 02:28:11;;;;;;;9.70;6.10;;;;;;;12.84;85.39;97104.05;110005;1249;59742;-64
2022/08/26 02:30:43;;;;;;;8.40;6.10;;;;;;;12.81;85.22;97107.34;110012;1250;59694;-64
2022/08/26 02:33:14;;;;;;;8.60;6.40;;;;;;;12.73;86.04;97104.08;110013;1250;70579;-62
2022/08/26 02:35:45;;;;;;;5.80;4.60;;;;;;;12.68;84.92;97103.13;110025;1248;69603;-62
2022/08/26 02:38:15;;;;;;;6.30;5.50;;;;;;;12.65;84.29;97112.36;110028;1249;69210;-65
2022/08/26 02:40:47;;;;;;;7.40;5.80;;;;;;;12.61;81.62;97111.60;110021;1248;59684;-66
2022/08/26 02:43:18;;;;;;;7.80;6.00;;;;;;;12.57;80.79;97117.70;110028;1250;59692;-64
2022/08/26 02:46:01;;;;;;;6.10;4.70;;;;;;;12.54;83.59;97119.23;110009;1248;71434;-65
2022/08/26 02:48:31;;;;;;;8.30;5.60;;;;;;;12.50;81.14;97123.58;110045;1247;68454;-63
2022/08/26 02:51:01;;;;;;;7.30;5.90;;;;;;;12.47;85.59;97125.41;110084;1248;68470;-63
2022/08/26 02:53:30;;;;;;;7.60;5.90;;;;;;;12.42;86.70;97123.02;110090;1247;60127;-65
2022/08/26 02:56:07;;;;;;;8.10;4.80;;;;;;;12.38;86.94;97125.31;110003;1247;59680;-65
2022/08/26 02:58:36;;;;;;;9.40;6.70;;;;;;;12.35;86.07;97121.38;110036;1248;71624;-65
2022/08/26 03:01:06;;;;;;;8.50;6.50;;;;;;;12.31;86.99;97125.75;110048;1247;68603;-65
2022/08/26 03:03:36;;;;;;;7.90;6.30;;;;;;;12.28;86.30;97126.52;110049;1247;68434;-65
2022/08/26 03:06:06;;;;;;;9.50;6.50;;;;;;;12.25;84.99;97128.30;110066;1247;59709;-65
2022/08/26 03:08:36;;;;;;;5.60;5.00;;;;;;;12.26;86.70;97127.70;110084;1247;59689;-66
2022/08/26 03:11:07;;;;;;;6.40;5.40;;;;;;;12.25;84.24;97127.94;110090;1247;70803;-66
2022/08/26 03:13:40;;;;;;;6.50;5.20;;;;;;;12.22;83.44;97132.16;110088;1247;68416;-67
2022/08/26 03:16:09;;;;;;;8.20;6.40;;;;;;;12.20;84.44;97130.31;110182;1248;68830;-65
2022/08/26 03:18:41;;;;;;;8.00;5.20;;;;;;;12.14;84.01;97136.42;110029;1248;59708;-66
2022/08/26 03:21:21;;;;;;;11.30;7.00;;;;;;;12.07;83.19;97134.33;110046;1250;59696;-65
2022/08/26 03:23:50;;;;;;;7.70;6.40;;;;;;;12.01;84.86;97132.98;110044;1250;71507;-65
2022/08/26 03:26:19;;;;;;;7.70;5.50;;;;;;;11.97;86.12;97134.70;109999;1248;69760;-65
2022/08/26 03:31:38;;;;;;;7.00;5.30;;;;;;;11.91;88.26;97136.20;110023;1247;59684;-66
2022/08/26 03:34:08;;;;;;;8.80;6.20;;;;;;;11.90;88.33;97139.23;110062;1247;59634;-64
2022/08/26 03:36:39;;;;;;;8.20;5.20;;;;;;;11.90;86.62;97139.78;110052;1247;71550;-65
2022/08/26 03:39:11;;;;;;;8.00;5.90;;;;;;;11.91;83.87;97144.79;110093;1247;69287;-64
2022/08/26 03:41:43;;;;;;;6.60;5.90;;;;;;;11.90;84.66;97147.99;110088;1247;69403;-65
2022/08/26 03:44:14;;;;;;;5.90;5.30;;;;;;;11.91;86.75;97150.53;110141;1248;59726;-64
2022/08/26 03:46:45;;;;;;;7.10;6.20;;;;;;;11.94;89.10;97145.55;110110;1247;59751;-64
2022/08/26 03:49:14;;;;;;;7.50;5.00;;;;;;;11.96;88.49;97143.98;110093;1250;71582;-64
2022/08/26 03:51:44;;;;;;;9.40;6.60;;;;;;;11.98;88.04;97140.20;110139;1248;69407;-65
2022/08/26 03:54:13;;;;;;;11.70;6.30;;;;;;;11.99;89.24;97139.73;110078;1248;69793;-64
2022/08/26 03:56:42;;;;;;;7.80;6.10;;;;;;;12.00;88.71;97142.60;110108;1247;59693;-64
2022/08/26 03:59:14;;;;;;;6.30;5.60;;;;;;;12.02;88.50;97143.52;110070;1247;59676;-64
2022/08/26 04:01:43;;;;;;;7.70;5.70;;;;;;;12.06;86.29;97144.09;110131;1248;70819;-64
2022/08/26 04:04:12;;;;;;;7.50;5.70;;;;;;;12.09;85.85;97143.80;110182;1250;69680;-66
2022/08/26 04:06:43;;;;;;;11.20;6.50;;;;;;;12.12;85.45;97145.48;110122;1250;68495;-64
2022/08/26 04:09:17;;;;;;;8.70;6.40;;;;;;;12.14;84.06;97141.46;109994;1250;59667;-64
2022/08/26 04:11:48;;;;;;;7.90;5.60;;;;;;;12.18;84.16;97142.73;110063;1247;59697;-65
2022/08/26 04:14:21;;;;;;;7.80;5.80;;;;;;;12.28;85.91;97146.38;110057;1247;71558;-65
2022/08/26 04:16:52;;;;;;;9.10;5.90;;;;;;;12.44;86.12;97146.06;110059;1247;68794;-65
2022/08/26 04:19:24;;;;;;;5.90;4.80;;;;;;;12.65;85.23;97141.89;110180;1247;69551;-65
2022/08/26 04:21:53;;;;;;;7.60;5.40;;;;;;;12.87;84.08;97137.73;109844;1250;59764;-66
2022/08/26 04:24:25;;;;;;;7.30;6.50;;;;;;;13.08;83.35;97138.33;110131;1247;59741;-67
2022/08/26 04:26:55;;;;;;;7.90;6.50;;;;;;;13.25;82.79;97140.15;110084;1248;71626;-64
2022/08/26 04:29:25;;;;;;;6.00;5.30;;;;;;;13.44;82.12;97136.81;110127;1248;69447;-64
2022/08/26 04:31:55;;;;;;;6.40;4.80;;;;;;;13.61;81.78;97141.75;110082;1248;68629;-65
2022/08/26 04:34:26;;;;;;;7.70;5.60;;;;;;;13.79;81.42;97136.09;110083;1247;59790;-65
2022/08/26 04:36:56;;;;;;;7.10;5.60;;;;;;;13.93;80.38;97142.18;110129;1247;59701;-64
2022/08/26 04:39:26;;;;;;;7.60;5.10;;;;;;;14.17;80.85;97139.31;110153;1247;71502;-64
2022/08/26 04:41:55;;;;;;;;;;;;;;;14.39;80.23;97136.76;110111;1247;68918;-66
2022/08/26 04:44:28;;;;;;;7.70;5.70;;;;;;;14.59;79.08;97140.36;110069;1247;69507;-64
2022/08/26 04:46:57;;;;;;;6.10;5.30;;;;;;;14.82;78.41;97146.41;110062;1248;59751;-64
2022/08/26 04:49:26;;;;;;;6.30;4.20;;;;;;;15.05;76.77;97146.52;110069;1247;59630;-65
2022/08/26 04:52:04;;;;;;;7.80;5.00;;;;;;;15.37;78.15;97142.76;109741;1250;72116;-65
2022/08/26 04:54:33;;;;;;;7.20;5.80;;;;;;;15.56;74.60;97146.90;108236;1250;1888793;-65
2022/08/26 04:57:02;;;;;;;7.10;5.10;;;;;;;15.64;73.64;97147.15;109936;1248;68630;-64
2022/08/26 04:59:31;;;;;;;8.60;5.20;;;;;;;15.61;73.78;97144.13;109939;1248;60172;-64
2022/08/26 05:02:06;;;;;;;8.20;5.70;;;;;;;15.69;72.88;97142.66;109988;1250;59694;-64
2022/08/26 05:04:36;;;;;;;8.40;5.50;;;;;;;15.80;72.76;97145.79;110030;1250;72312;-65
2022/08/26 05:07:06;;;;;;;8.00;5.30;;;;;;;15.99;72.37;97147.08;110002;1250;68891;-65
2022/08/26 05:09:39;;;;;;;7.10;4.30;;;;;;;16.29;71.83;97143.77;110018;1250;69490;-65
2022/08/26 05:12:09;;;;;;;5.80;4.30;;;;;;;16.74;73.89;97147.80;109959;1249;59753;-65
2022/08/26 05:14:40;;;;;;;10.30;5.80;;;;;;;17.19;73.70;97142.48;110061;1250;59754;-64
2022/08/26 05:17:11;;;;;;;5.80;4.90;;;;;;;17.50;71.46;97139.11;110079;1247;70820;-65
2022/08/26 05:19:42;;;;;;;5.80;4.20;;;;;;;17.84;71.24;97140.47;110068;1248;69455;-64
2022/08/26 05:22:12;;;;;;;7.40;5.00;;;;;;;18.12;66.11;97137.48;110057;1248;68667;-66
2022/08/26 05:24:42;;;;;;;8.30;4.80;;;;;;;18.37;66.19;97139.29;109724;1249;59810;-66
2022/08/26 05:27:13;;;;;;;8.10;5.50;;;;;;;18.48;62.95;97141.59;109975;1251;59679;-63
2022/08/26 05:29:41;;;;;;;6.80;5.50;;;;;;;18.57;62.46;97137.27;110001;1251;70456;-64
2022/08/26 05:32:11;;;;;;;9.20;6.00;;;;;;;18.73;62.30;97142.08;110044;1250;69477;-65
2022/08/26 05:34:40;;;;;;;;;;;;;;;18.78;63.25;97145.63;110019;1250;68840;-64
2022/08/26 05:37:10;;;;;;;8.80;5.00;;;;;;;18.72;62.18;97141.81;110014;1250;59653;-65
2022/08/26 05:39:42;;;;;;;6.60;4.40;;;;;;;19.02;61.72;97134.77;110042;1250;59672;-65
2022/08/26 05:42:20;;;;;;;6.00;4.20;;;;;;;19.40;60.61;97135.60;110039;1250;71601;-64
2022/08/26 05:44:52;;;;;;;6.00;4.90;;;;;;;19.86;60.24;97134.84;109979;1250;68479;-67
2022/08/26 05:47:25;;;;;;;7.70;5.30;;;;;;;20.24;60.28;97132.52;110006;1250;69477;-64
2022/08/26 05:49:54;;;;;;;6.40;5.20;;;;;;;20.47;58.87;97137.83;110023;1248;59752;-65
2022/08/26 05:52:24;;;;;;;5.70;4.70;;;;;;;20.74;58.80;97143.68;109679;1251;59749;-65
2022/08/26 05:54:53;;;;;;;7.10;5.20;;;;;;;21.23;57.97;97146.73;109815;1250;71545;-64
2022/08/26 05:57:23;;;;;;;11.80;5.40;;;;;;;21.58;57.45;97150.09;109864;1251;69294;-65
2022/08/26 05:59:51;;;;;;;7.10;4.80;;;;;;;21.67;53.75;97144.95;109609;1249;70113;-65
2022/08/26 06:02:20;;;;;;;9.30;5.10;;;;;;;21.47;53.62;97147.02;109523;1252;59717;-65
2022/08/26 06:04:49;;;;;;;6.40;4.90;;;;;;;21.39;53.00;97147.94;109769;1250;59670;-64
2022/08/26 06:08:09;;;;;;;9.20;5.10;;;;;;;21.35;53.08;97149.27;109693;1251;72005;-64
2022/08/26 06:10:12;;;;;;;9.30;5.30;;;;;;;21.32;53.45;97149.20;109903;1250;69008;-65
2022/08/26 06:13:00;;;;;;;9.60;5.10;;;;;;;21.41;54.18;97148.38;109987;1250;69422;-66
2022/08/26 06:15:44;;;;;;;;;;;;;;;21.49;53.33;97151.02;109700;1250;59705;-66
2022/08/26 06:18:15;;;;;;;10.10;5.20;;;;;;;21.62;53.46;97149.27;109765;1250;59745;-66
2022/08/26 06:20:46;;;;;;;6.90;4.50;;;;;;;21.75;53.14;97146.80;110053;1248;71716;-66
2022/08/26 06:26:16;;;;;;;6.50;4.50;;;;;;;22.80;52.37;97152.71;109944;1247;69749;-66
2022/08/26 06:28:44;;;;;;;;;;;;;;;23.48;50.41;97152.20;109744;1250;59689;-66
2022/08/26 06:31:14;;;;;;;9.20;5.00;;;;;;;24.07;49.19;97151.37;110170;1250;59659;-66
2022/08/26 06:33:43;;;;;;;;;;;;;;;24.54;47.86;97149.34;110294;1250;71827;-67
2022/08/26 06:36:23;;;;;;;5.90;4.20;;;;;;;24.96;47.20;97148.35;109832;1250;68954;-67
2022/08/26 06:38:52;;;;;;;;;;;;;;;25.32;46.42;97148.71;109843;1251;69789;-65
2022/08/26 06:41:22;;;;;;;6.80;3.90;;;;;;;25.49;43.52;97145.24;110108;1247;59776;-67
2022/08/26 06:43:52;;;;;;;6.80;4.40;;;;;;;25.41;42.74;97145.89;110074;1250;59673;-67
2022/08/26 06:46:21;;;;;;;7.90;4.90;;;;;;;25.60;42.52;97145.52;109566;1253;72224;-66
2022/08/26 06:48:54;;;;;;;7.90;5.20;;;;;;;25.35;43.84;97147.93;109695;1250;68672;-67
2022/08/26 06:51:26;;;;;;;7.80;4.20;;;;;;;25.41;42.93;97144.17;109658;1251;69490;-66
2022/08/26 06:53:58;;;;;;;10.10;5.10;;;;;;;25.34;43.47;97146.54;110026;1248;59724;-66
2022/08/26 06:56:48;;;;;;;7.00;4.80;;;;;;;25.51;43.55;97143.38;109658;1251;59757;-67
2022/08/26 06:59:18;;;;;;;10.80;4.60;;;;;;;25.83;42.81;97140.44;109576;1251;71040;-65
2022/08/26 07:01:46;;;;;;;6.60;4.30;;;;;;;25.96;42.74;97142.32;109877;1250;70028;-66
2022/08/26 07:04:17;;;;;;;9.40;5.30;;;;;;;26.03;42.23;97137.45;109787;1250;68749;-65
2022/08/26 07:06:51;;;;;;;7.10;4.00;;;;;;;26.32;42.14;97141.86;109714;1251;59768;-65
2022/08/26 07:09:24;;;;;;;11.00;5.40;;;;;;;26.69;41.78;97136.14;109838;1251;59698;-66
2022/08/26 07:11:55;;;;;;;7.80;4.60;;;;;;;26.78;41.01;97134.44;109750;1251;70812;-65
2022/08/26 07:14:25;;;;;;;6.50;4.00;;;;;;;26.91;40.67;97135.19;109635;1250;69488;-65
2022/08/26 07:16:54;;;;;;;8.50;4.90;;;;;;;26.88;40.38;97131.17;109753;1251;68471;-66
2022/08/26 07:19:22;;;;;;;;;;;;;;;26.59;40.82;97133.23;109797;1251;59709;-66
2022/08/26 07:22:02;;;;;;;8.40;4.90;;;;;;;26.41;41.62;97131.54;110016;1248;59676;-65
2022/08/26 07:24:33;;;;;;;10.00;5.70;;;;;;;26.31;41.97;97128.76;109903;1250;71016;-67
2022/08/26 07:27:06;;;;;;;10.50;6.30;;;;;;;26.00;42.92;97121.45;110087;1247;69424;-67
2022/08/26 07:29:38;;;;;;;8.60;5.80;;;;;;;25.99;42.55;97122.64;110088;1248;69528;-66
2022/08/26 07:32:08;;;;;;;8.70;5.60;;;;;;;26.31;41.72;97118.04;110094;1250;59763;-67
2022/08/26 07:34:38;;;;;;;9.20;5.40;;;;;;;26.57;41.73;97118.38;110228;1250;59739;-66
2022/08/26 07:37:09;;;;;;;9.80;6.40;;;;;;;26.96;40.98;97113.77;110010;1250;71572;-66
2022/08/26 07:39:40;;;;;;;10.00;6.30;;;;;;;27.34;39.92;97111.02;110034;1250;69894;-66
2022/08/26 07:42:14;;;;;;;9.80;5.50;;;;;;;27.12;39.79;97109.05;110005;1250;69437;-65
2022/08/26 07:44:46;;;;;;;8.10;6.10;;;;;;;27.22;40.15;97107.96;110093;1248;59722;-65
2022/08/26 07:47:15;;;;;;;9.80;6.60;;;;;;;27.56;39.99;97103.42;109648;1249;59680;-65
2022/08/26 07:49:56;;;;;;;9.10;5.60;;;;;;;27.57;39.18;97100.39;110014;1247;70793;-65
2022/08/26 07:52:28;;;;;;;8.90;5.10;;;;;;;27.65;39.49;97103.23;110079;1247;69368;-66
2022/08/26 07:54:58;;;;;;;8.70;5.00;;;;;;;27.99;38.82;97097.83;110071;1247;69831;-67
2022/08/26 07:57:29;;;;;;;10.50;5.50;;;;;;;28.10;38.49;97094.88;110047;1248;59719;-67
2022/08/26 07:59:58;;;;;;;10.40;7.70;;;;;;;28.21;37.52;97098.12;110049;1247;59715;-66
2022/08/26 08:02:29;;;;;;;8.70;4.70;;;;;;;28.06;37.98;97093.02;110054;1248;72220;-66
2022/08/26 08:04:59;;;;;;;5.70;4.80;;;;;;;28.03;37.97;97089.18;109795;1251;68821;-66
2022/08/26 08:07:28;;;;;;;8.00;4.40;;;;;;;28.54;37.14;97087.14;110010;1248;68718;-67
2022/08/26 08:10:17;;;;;;;12.90;5.40;;;;;;;28.81;37.00;97082.89;109983;1250;59680;-65
2022/08/26 08:12:49;;;;;;;9.60;5.00;;;;;;;28.73;36.25;97078.55;110030;1248;59752;-65
2022/08/26 08:15:23;;;;;;;6.60;4.50;;;;;;;28.80;36.19;97077.91;110043;1248;71352;-66
2022/08/26 08:17:53;;;;;;;8.90;4.50;;;;;;;28.99;35.90;97075.52;110067;1247;69710;-66
2022/08/26 08:20:27;;;;;;;9.20;4.30;;;;;;;29.54;35.65;97068.53;110063;1247;69812;-66
2022/08/26 08:22:56;;;;;;;7.80;4.80;;;;;;;29.89;35.37;97066.95;109991;1250;59805;-65
2022/08/26 08:25:25;;;;;;;8.30;4.60;;;;;;;30.26;33.75;97071.17;109689;1248;59694;-66
2022/08/26 08:27:53;;;;;;;8.70;4.50;;;;;;;30.53;33.30;97071.30;110109;1248;71599;-66
2022/08/26 08:30:25;;;;;;;8.00;5.00;;;;;;;30.75;32.44;97070.73;110065;1247;69435;-65
2022/08/26 08:32:54;;;;;;;8.30;4.90;;;;;;;30.61;33.54;97070.89;110039;1248;69704;-66
2022/08/26 08:35:25;;;;;;;8.90;4.40;;;;;;;31.11;32.96;97069.02;110391;1248;59741;-66
2022/08/26 08:37:54;;;;;;;8.00;3.90;;;;;;;31.65;32.03;97069.55;110059;1247;59691;-67
2022/08/26 08:40:25;;;;;;;11.70;4.30;;;;;;;31.99;30.61;97062.23;110037;1247;72161;-66
2022/08/26 08:43:03;;;;;;;7.50;4.20;;;;;;;31.94;30.84;97064.09;109957;1247;69221;-66
2022/08/26 08:45:41;;;;;;;6.70;4.60;;;;;;;31.95;30.48;97061.16;109916;1251;68635;-67
2022/08/26 08:48:34;;;;;;;5.90;4.30;;;;;;;31.87;29.82;97058.65;110008;1248;59710;-67
2022/08/26 08:51:17;;;;;;;6.90;4.20;;;;;;;31.50;30.39;97059.38;110056;1247;59727;-67
2022/08/26 08:53:49;;;;;;;7.20;4.10;;;;;;;31.41;30.60;97057.17;110023;1249;71966;-67
2022/08/26 08:56:24;;;;;;;7.60;3.70;;;;;;;31.54;30.57;97056.46;109990;1249;69822;-67
2022/08/26 08:59:13;;;;;;;6.40;3.90;;;;;;;32.32;30.19;97055.61;109975;1248;69417;-68
2022/08/26 09:01:50;;;;;;;7.70;4.30;;;;;;;32.57;28.54;97049.17;110058;1248;59705;-67
2022/08/26 09:04:50;;;;;;;6.50;4.40;;;;;;;32.51;29.03;97047.64;110027;1247;59686;-67
2022/08/26 09:07:46;;;;;;;7.60;3.20;;;;;;;32.73;28.54;97043.93;110023;1249;71513;-67
2022/08/26 09:10:28;;;;;;;8.90;3.90;;;;;;;33.16;27.02;97041.27;110022;1251;68636;-66
2022/08/26 09:12:58;;;;;;;7.40;3.90;;;;;;;33.30;26.69;97037.05;109997;1250;67486;-67
2022/08/26 09:15:32;;;;;;;8.00;4.10;;;;;;;32.39;26.77;97036.27;109971;1250;59677;-67
2022/08/26 09:18:23;;;;;;;6.10;3.30;;;;;;;32.75;26.26;97038.41;109987;1250;59693;-67
2022/08/26 09:21:02;;;;;;;4.50;3.00;;;;;;;32.90;26.77;97032.98;110092;1247;70636;-67
2022/08/26 09:23:34;;;;;;;6.70;3.00;;;;;;;33.28;25.55;97026.77;110103;1248;69153;-68
2022/08/26 09:26:15;;;;;;;6.60;2.80;;;;;;;33.59;25.02;97021.25;110096;1250;69295;-67
2022/08/26 09:28:48;;;;;;;9.60;3.70;;;;;;;34.11;23.98;97021.00;110086;1247;59717;-68
2022/08/26 09:31:24;;;;;;;4.90;2.90;;;;;;;33.41;24.01;97017.72;110038;1249;59784;-68
2022/08/26 09:34:10;;;;;;;;;;;;;;;33.87;23.56;97011.63;110489;1249;70995;-68
2022/08/26 09:36:50;;;;;;;5.20;2.50;;;;;;;34.19;23.68;97015.77;109801;1251;68774;-68
2022/08/26 09:39:32;;;;;;;5.90;2.90;;;;;;;35.09;22.57;97008.46;109906;1248;69472;-67
2022/08/26 09:42:10;;;;;;;4.80;2.70;;;;;;;35.07;21.66;97004.70;110051;1247;59884;-66
2022/08/26 09:44:59;;;;;;;5.10;3.00;;;;;;;34.98;22.20;97009.48;110073;1249;59655;-66
2022/08/26 09:47:53;;;;;;;4.80;2.70;;;;;;;35.31;20.86;97008.98;109992;1248;71340;-67
2022/08/26 09:50:31;;;;;;;5.90;2.80;;;;;;;34.94;21.54;97010.64;110080;1247;69114;-67
2022/08/26 09:53:13;;;;;;;6.30;3.10;;;;;;;34.92;21.46;97009.66;109768;1247;68517;-67
2022/08/26 09:55:46;;;;;;;5.70;2.90;;;;;;;35.22;23.19;97007.80;110056;1248;59758;-66
2022/08/26 09:58:34;;;;;;;3.30;2.30;;;;;;;36.06;20.26;97004.70;109998;1250;59694;-67
2022/08/26 10:01:08;;;;;;;3.00;2.40;;;;;;;36.81;19.59;97006.05;110080;1248;70540;-66
2022/08/26 10:03:38;;;;;;;5.60;2.80;;;;;;;36.78;18.57;97002.58;110093;1247;69228;-67
2022/08/26 10:06:16;;;;;;;4.60;2.80;;;;;;;36.28;19.09;96998.83;110046;1247;69400;-67
2022/08/26 10:08:57;;;;;;;6.00;2.70;;;;;;;35.50;19.85;96993.97;109772;1250;59694;-67
2022/08/26 10:11:45;;;;;;;3.80;2.30;;;;;;;36.55;19.75;96997.29;110102;1247;59882;-67
2022/08/26 10:14:25;;;;;;;5.50;2.90;;;;;;;37.31;18.81;96999.56;110085;1247;71963;-66
2022/08/26 10:17:05;;;;;;;4.30;2.20;;;;;;;37.59;17.98;96994.84;110036;1247;69228;-67
2022/08/26 10:19:39;;;;;;;4.30;3.00;;;;;;;37.90;18.54;96993.58;109839;1251;68548;-66
2022/08/26 10:22:45;;;;;;;3.70;2.30;;;;;;;37.35;18.79;96994.38;110042;1247;59700;-66
2022/08/26 10:25:20;;;;;;;3.60;2.20;;;;;;;38.35;18.26;96988.87;110052;1247;59662;-67
2022/08/26 10:27:53;;;;;;;3.70;2.60;;;;;;;38.00;18.44;96988.91;109654;1251;71826;-70
2022/08/26 10:30:26;;;;;;;8.10;2.70;;;;;;;37.70;18.41;96984.93;110169;1247;68732;-67
2022/08/26 10:33:08;;;;;;;2.60;2.00;;;;;;;37.19;17.96;96984.23;110068;1249;69769;-68
2022/08/26 10:35:50;;;;;;;4.30;2.30;;;;;;;38.36;17.85;96980.41;110217;1247;59720;-68
2022/08/26 10:38:29;;;;;;;5.10;2.50;;;;;;;38.58;16.88;96975.81;110109;1247;59634;-68
2022/08/26 10:41:22;;;;;;;4.40;2.50;;;;;;;38.67;17.18;96977.14;110063;1248;72175;-67
2022/08/26 10:43:57;;;;;;;3.10;2.10;;;;;;;38.86;16.81;96976.97;110069;1247;68773;-67
2022/08/26 10:46:38;;;;;;;4.00;2.30;;;;;;;38.25;16.31;96970.36;110028;1250;69324;-68
2022/08/26 10:49:12;;;;;;;4.30;2.40;;;;;;;38.98;16.33;96969.75;110004;1250;59751;-67
2022/08/26 10:51:49;;;;;;;4.30;2.20;;;;;;;38.08;16.34;96961.73;109795;1249;59689;-68
2022/08/26 10:54:45;;;;;;;3.60;2.10;;;;;;;38.06;16.87;96960.86;109690;1249;71327;-68
2022/08/26 10:57:46;;;;;;;4.60;2.00;;;;;;;38.00;18.50;96959.58;109816;1249;69737;-67
2022/08/26 11:03:35;;;;;;;4.00;2.00;;;;;;;38.74;17.58;96956.89;110025;1247;59745;-67
2022/08/26 11:06:14;;;;;;;4.10;2.20;;;;;;;38.70;16.52;96952.91;110011;1247;59707;-67
2022/08/26 11:08:55;;;;;;;3.70;2.00;;;;;;;39.55;16.00;96952.86;110081;1247;72211;-66
2022/08/26 11:11:40;;;;;;;3.60;2.20;;;;;;;39.87;15.32;96947.63;110023;1247;68567;-68
2022/08/26 11:14:18;;;;;;;4.10;1.90;;;;;;;39.61;14.95;96941.25;109999;1247;69079;-67
2022/08/26 11:16:58;;;;;;;4.60;2.40;;;;;;;38.87;15.11;96941.20;109741;1250;59748;-67
2022/08/26 11:19:40;;;;;;;3.80;2.00;;;;;;;39.03;15.18;96939.70;109760;1250;59640;-68
2022/08/26 11:22:33;;;;;;;3.30;1.90;;;;;;;39.21;15.23;96938.05;109749;1251;71719;-67
2022/08/26 11:25:05;;;;;;;3.60;2.30;;;;;;;39.32;14.94;96938.59;109852;1249;69868;-67
2022/08/26 11:27:36;;;;;;;4.80;2.60;;;;;;;39.08;14.86;96932.48;109940;1250;69238;-69
2022/08/26 11:30:18;;;;;;;2.20;1.60;;;;;;;38.92;15.58;96934.90;109971;1251;59732;-65
2022/08/26 11:32:53;;;;;;;4.60;2.10;;;;;;;38.53;15.45;96930.22;110032;1250;59655;-68
2022/08/26 11:35:23;;;;;;;4.70;2.10;;;;;;;38.87;15.13;96929.71;110960;1248;70770;-66
2022/08/26 11:38:11;;;;;;;4.10;1.90;;;;;;;38.61;15.07;96931.86;110135;1247;68702;-67
2022/08/26 11:40:40;;;;;;;;;;;;;;;37.87;15.84;96930.29;110035;1247;68455;-67
2022/08/26 11:43:18;;;;;;;5.60;2.50;;;;;;;38.37;15.48;96930.14;110047;1250;59759;-67
2022/08/26 11:45:59;;;;;;;3.30;2.60;;;;;;;38.18;15.31;96930.65;110030;1250;59712;-68
2022/08/26 11:48:32;;;;;;;5.40;3.20;;;;;;;37.78;16.13;96920.14;110036;1250;72046;-67
2022/08/26 11:51:19;;;;;;;5.80;2.20;;;;;;;37.78;15.83;96920.63;110044;1249;70028;-67
2022/08/26 11:53:49;;;;;;;3.40;2.20;;;;;;;37.82;15.93;96913.70;110017;1250;69420;-67
2022/08/26 11:56:31;;;;;;;7.00;2.30;;;;;;;37.85;15.79;96910.49;110012;1251;59742;-67
2022/08/26 11:59:06;;;;;;;3.80;2.20;;;;;;;37.85;15.84;96907.86;110039;1250;59691;-67
2022/08/26 12:01:40;;;;;;;4.60;2.10;;;;;;;38.04;15.80;96907.77;110025;1249;71603;-68
2022/08/26 12:04:16;;;;;;;4.70;2.20;;;;;;;38.41;15.94;96910.54;110077;1250;69830;-66
2022/08/26 12:06:49;;;;;;;5.40;2.70;;;;;;;38.53;15.83;96903.73;109737;1249;69237;-67
2022/08/26 12:09:27;;;;;;;4.20;2.20;;;;;;;38.88;15.33;96901.57;110050;1251;59714;-67